Weather History for Beach, ND

Change the Weather History Date:

Thursday, October 25, 2012

  Actual Average (KGDV) Record (KGDV)
Temperature  
Mean Temperature 27 °F -  
Max Temperature 30 °F 49 °F 64 °F (1998)
Min Temperature 24 °F 28 °F 14 °F (1997)
Degree Days  
Heating Degree Days 38    
Moisture  
Dew Point 20 °F    
Average Humidity 74    
Maximum Humidity 93    
Minimum Humidity 64    
Precipitation  
Precipitation 0.00 in - - ()
Sea Level Pressure  
Sea Level Pressure 30.23 in    
Wind  
Wind Speed 18 mph (NW)    
Max Wind Speed 24 mph    
Max Gust Speed 32 mph    
Visibility 10 miles    
Events      
Averages and records for this station are not official NWS values.
T = Trace of Precipitation, MM = Missing Value Source: NWS Daily Summary

Daily Weather History Graph

Daily Weather History Graph

Search for Another Location

Airport:

Trip Planner

Search our weather history database for the weather conditions in past years. The results will help you decide how hot, cold, wet, or windy it might be!

Date:

Astronomy

Oct. 25, 2012 Rise Set
Actual Time 7:28 AM MDT 5:50 PM MDT
Civil Twilight 6:57 AM MDT 6:21 PM MDT
Nautical Twilight 6:22 AM MDT 6:56 PM MDT
Astronomical Twilight 5:46 AM MDT 7:32 PM MDT
Moon 3:49 PM MDT (10/25) 3:14 AM MDT (10/25)
Length of Visible Light 11h 23m
Length of Day
10h 21m
Waxing Gibbous, 85% of the Moon is Illuminated
Oct 25
Waxing Gibbous
Oct 29
Full
Nov 6
Last Quarter
Nov 13
New
Nov 20
First Quarter

Hourly Weather History & Observations

Time (MDT) Temp. Windchill Dew Point Humidity Pressure Visibility Wind Dir Wind Speed Gust Speed Precip Events Conditions
12:15 AM 26.6 °F 16.2 °F 23.0 °F 86% 30.13 in 10.0 mi WNW 11.5 mph - N/A   Overcast
12:35 AM 24.8 °F 13.4 °F 23.0 °F 93% 30.13 in 10.0 mi WNW 12.7 mph - N/A   Overcast
12:55 AM 24.8 °F 11.9 °F 23.0 °F 93% 30.14 in 10.0 mi NW 16.1 mph - N/A   Overcast
1:35 AM 24.8 °F 10.0 °F 21.2 °F 86% 30.14 in 10.0 mi NW 21.9 mph 26.5 mph N/A   Overcast
1:55 AM 24.8 °F 11.1 °F 21.2 °F 86% 30.14 in 10.0 mi NW 18.4 mph 27.6 mph N/A   Overcast
2:15 AM 24.8 °F 10.7 °F 21.2 °F 86% 30.14 in 10.0 mi WNW 19.6 mph 25.3 mph N/A   Overcast
2:35 AM 24.8 °F 10.0 °F 21.2 °F 86% 30.15 in 10.0 mi NW 21.9 mph 28.8 mph N/A   Overcast
2:55 AM 24.8 °F 9.3 °F 19.4 °F 80% 30.15 in 10.0 mi NW 24.2 mph 32.2 mph N/A   Overcast
3:15 AM 24.8 °F 10.3 °F 21.2 °F 86% 30.16 in 10.0 mi NW 20.7 mph 28.8 mph N/A   Overcast
3:35 AM 24.8 °F 12.4 °F 21.2 °F 86% 30.16 in 10.0 mi NW 15.0 mph 25.3 mph N/A   Overcast
3:55 AM 24.8 °F 11.5 °F 21.2 °F 86% 30.16 in 10.0 mi WNW 17.3 mph 26.5 mph N/A   Overcast
4:15 AM 24.8 °F 10.3 °F 21.2 °F 86% 30.16 in 10.0 mi NW 20.7 mph 26.5 mph N/A   Overcast
4:35 AM 24.8 °F 10.3 °F 21.2 °F 86% 30.17 in 10.0 mi NW 20.7 mph 26.5 mph N/A   Overcast
4:55 AM 24.8 °F 11.1 °F 21.2 °F 86% 30.17 in 10.0 mi NW 18.4 mph 24.2 mph N/A   Overcast
5:15 AM 24.8 °F 10.7 °F 21.2 °F 86% 30.17 in 10.0 mi NW 19.6 mph 24.2 mph N/A   Overcast
6:35 AM 26.6 °F 13.4 °F 21.2 °F 80% 30.19 in 10.0 mi NW 18.4 mph 25.3 mph N/A   Overcast
6:55 AM 26.6 °F 14.7 °F 21.2 °F 80% 30.19 in 10.0 mi NW 15.0 mph 24.2 mph N/A   Overcast
7:15 AM 26.6 °F 13.1 °F 21.2 °F 80% 30.18 in 10.0 mi NW 19.6 mph 25.3 mph N/A   Overcast
7:35 AM 26.6 °F 13.4 °F 19.4 °F 74% 30.19 in 10.0 mi WNW 18.4 mph 24.2 mph N/A   Overcast
7:55 AM 26.6 °F 13.8 °F 19.4 °F 74% 30.19 in 10.0 mi NW 17.3 mph 27.6 mph N/A   Overcast
8:15 AM 26.6 °F 13.4 °F 21.2 °F 80% 30.19 in 10.0 mi NW 18.4 mph 24.2 mph N/A   Overcast
8:35 AM 26.6 °F 12.7 °F 19.4 °F 74% 30.20 in 10.0 mi NW 20.7 mph 27.6 mph N/A   Overcast
8:55 AM 26.6 °F 12.7 °F 19.4 °F 74% 30.20 in 10.0 mi NW 20.7 mph 25.3 mph N/A   Overcast
9:35 AM 26.6 °F 13.8 °F 19.4 °F 74% 30.21 in 10.0 mi NW 17.3 mph 24.2 mph N/A   Overcast
10:15 AM 28.4 °F 16.2 °F 19.4 °F 69% 30.22 in 10.0 mi NW 17.3 mph - N/A   Overcast
10:35 AM 28.4 °F 15.8 °F 19.4 °F 69% 30.22 in 10.0 mi NW 18.4 mph 25.3 mph N/A   Overcast
10:55 AM 28.4 °F 15.4 °F 19.4 °F 69% 30.22 in 10.0 mi NW 19.6 mph 24.2 mph N/A   Overcast
11:15 AM 28.4 °F 15.1 °F 19.4 °F 69% 30.22 in 10.0 mi WNW 20.7 mph 27.6 mph N/A   Overcast
11:35 AM 28.4 °F 15.1 °F 19.4 °F 69% 30.22 in 10.0 mi NW 20.7 mph 28.8 mph N/A   Overcast
11:55 AM 28.4 °F 15.4 °F 19.4 °F 69% 30.22 in 10.0 mi WNW 19.6 mph 26.5 mph N/A   Overcast
12:15 PM 28.4 °F 15.4 °F 19.4 °F 69% 30.23 in 10.0 mi NW 19.6 mph - N/A   Overcast
12:35 PM 28.4 °F 15.4 °F 19.4 °F 69% 30.23 in 10.0 mi NW 19.6 mph 26.5 mph N/A   Overcast
12:55 PM 28.4 °F 15.8 °F 19.4 °F 69% 30.23 in 10.0 mi NW 18.4 mph 25.3 mph N/A   Overcast
1:15 PM 28.4 °F 15.8 °F 19.4 °F 69% 30.22 in 10.0 mi NW 18.4 mph 26.5 mph N/A   Overcast
1:35 PM 28.4 °F 16.2 °F 19.4 °F 69% 30.23 in 10.0 mi WNW 17.3 mph 27.6 mph N/A   Overcast
1:55 PM 28.4 °F 15.1 °F 19.4 °F 69% 30.23 in 10.0 mi WNW 20.7 mph 27.6 mph N/A   Overcast
2:15 PM 28.4 °F 14.1 °F 19.4 °F 69% 30.23 in 10.0 mi WNW 24.2 mph 27.6 mph N/A   Overcast
2:35 PM 28.4 °F 15.4 °F 19.4 °F 69% 30.23 in 10.0 mi NW 19.6 mph 27.6 mph N/A   Overcast
2:55 PM 28.4 °F 14.7 °F 19.4 °F 69% 30.24 in 10.0 mi WNW 21.9 mph 27.6 mph N/A   Overcast
3:15 PM 28.4 °F 16.2 °F 19.4 °F 69% 30.24 in 10.0 mi NW 17.3 mph 26.5 mph N/A   Overcast
3:35 PM 28.4 °F 16.2 °F 19.4 °F 69% 30.24 in 10.0 mi NW 17.3 mph 26.5 mph N/A   Overcast
3:55 PM 28.4 °F 16.2 °F 19.4 °F 69% 30.24 in 10.0 mi NW 17.3 mph 26.5 mph N/A   Overcast
4:15 PM 30.2 °F 17.8 °F 19.4 °F 64% 30.25 in 10.0 mi WNW 19.6 mph 26.5 mph N/A   Overcast
4:35 PM 28.4 °F 16.2 °F 21.2 °F 74% 30.26 in 10.0 mi NW 17.3 mph 26.5 mph N/A   Overcast
4:55 PM 28.4 °F 15.4 °F 21.2 °F 74% 30.26 in 10.0 mi NW 19.6 mph 23.0 mph N/A   Overcast
5:15 PM 28.4 °F 16.2 °F 21.2 °F 74% 30.27 in 10.0 mi NW 17.3 mph 29.9 mph N/A   Overcast
5:35 PM 28.4 °F 15.4 °F 19.4 °F 69% 30.28 in 10.0 mi NW 19.6 mph 28.8 mph N/A   Overcast
5:55 PM 28.4 °F 17.5 °F 21.2 °F 74% 30.28 in 10.0 mi NW 13.8 mph 21.9 mph N/A   Overcast
6:15 PM 28.4 °F 17.0 °F 19.4 °F 69% 30.29 in 10.0 mi NW 15.0 mph 23.0 mph N/A   Overcast
6:35 PM 28.4 °F 15.1 °F 19.4 °F 69% 30.30 in 10.0 mi NW 20.7 mph 27.6 mph N/A   Overcast
6:55 PM 28.4 °F 15.8 °F 19.4 °F 69% 30.30 in 10.0 mi NW 18.4 mph 28.8 mph N/A   Overcast
7:15 PM 28.4 °F 15.8 °F 19.4 °F 69% 30.31 in 10.0 mi NW 18.4 mph 24.2 mph N/A   Overcast
7:35 PM 28.4 °F 16.6 °F 19.4 °F 69% 30.31 in 10.0 mi WNW 16.1 mph 24.2 mph N/A   Overcast
7:55 PM 28.4 °F 16.2 °F 19.4 °F 69% 30.31 in 10.0 mi WNW 17.3 mph 24.2 mph N/A   Overcast
8:15 PM 28.4 °F 18.0 °F 21.2 °F 74% 30.32 in 10.0 mi WNW 12.7 mph - N/A   Overcast
8:35 PM 28.4 °F 16.2 °F 19.4 °F 69% 30.32 in 10.0 mi WNW 17.3 mph 23.0 mph N/A   Overcast
8:55 PM 28.4 °F 16.2 °F 19.4 °F 69% 30.32 in 10.0 mi WNW 17.3 mph 21.9 mph N/A   Overcast
9:15 PM 28.4 °F 17.0 °F 19.4 °F 69% 30.32 in 10.0 mi WNW 15.0 mph 23.0 mph N/A   Overcast
9:55 PM 28.4 °F 15.1 °F 17.6 °F 64% 30.33 in 10.0 mi WNW 20.7 mph 26.5 mph N/A   Overcast
10:15 PM 28.4 °F 15.8 °F 17.6 °F 64% 30.34 in 10.0 mi NW 18.4 mph 26.5 mph N/A   Overcast
10:35 PM 26.6 °F 13.8 °F 17.6 °F 69% 30.34 in 10.0 mi WNW 17.3 mph 21.9 mph N/A   Overcast
10:55 PM 26.6 °F 13.4 °F 17.6 °F 69% 30.34 in 10.0 mi WNW 18.4 mph 25.3 mph N/A   Overcast
11:35 PM 26.6 °F 14.3 °F 15.8 °F 64% 30.34 in 10.0 mi WNW 16.1 mph 20.7 mph N/A   Overcast